sensor_id;sensor_type;location;lat;lon;timestamp;temperature;humidity
80412;SHT30;69749;42.684;23.360;2023-07-13T00:01:15;24.34;53.12
80412;SHT30;69749;42.684;23.360;2023-07-13T00:03:40;24.18;54.47
80412;SHT30;69749;42.684;23.360;2023-07-13T00:06:06;24.16;54.48
80412;SHT30;69749;42.684;23.360;2023-07-13T00:08:33;24.03;54.81
80412;SHT30;69749;42.684;23.360;2023-07-13T00:11:02;24.07;53.70
80412;SHT30;69749;42.684;23.360;2023-07-13T00:13:29;24.06;54.12
80412;SHT30;69749;42.684;23.360;2023-07-13T00:15:56;23.92;55.23
80412;SHT30;69749;42.684;23.360;2023-07-13T00:18:22;23.94;54.18
80412;SHT30;69749;42.684;23.360;2023-07-13T00:20:47;23.90;55.32
80412;SHT30;69749;42.684;23.360;2023-07-13T00:23:13;23.85;54.75
80412;SHT30;69749;42.684;23.360;2023-07-13T00:25:39;23.83;54.53
80412;SHT30;69749;42.684;23.360;2023-07-13T00:28:05;23.80;54.55
80412;SHT30;69749;42.684;23.360;2023-07-13T00:30:30;23.85;53.55
80412;SHT30;69749;42.684;23.360;2023-07-13T00:32:56;23.79;54.33
80412;SHT30;69749;42.684;23.360;2023-07-13T00:35:22;23.79;54.53
80412;SHT30;69749;42.684;23.360;2023-07-13T00:37:48;23.86;55.29
80412;SHT30;69749;42.684;23.360;2023-07-13T00:40:15;23.94;53.35
80412;SHT30;69749;42.684;23.360;2023-07-13T00:42:41;23.85;54.29
80412;SHT30;69749;42.684;23.360;2023-07-13T00:47:39;23.87;54.79
80412;SHT30;69749;42.684;23.360;2023-07-13T00:50:08;23.65;56.37
80412;SHT30;69749;42.684;23.360;2023-07-13T00:52:35;23.52;56.10
80412;SHT30;69749;42.684;23.360;2023-07-13T00:55:01;23.59;55.45
80412;SHT30;69749;42.684;23.360;2023-07-13T00:57:27;23.59;55.79
80412;SHT30;69749;42.684;23.360;2023-07-13T00:59:58;23.67;55.60
80412;SHT30;69749;42.684;23.360;2023-07-13T01:02:28;23.69;55.73
80412;SHT30;69749;42.684;23.360;2023-07-13T01:04:53;23.63;56.29
80412;SHT30;69749;42.684;23.360;2023-07-13T01:07:19;23.51;56.88
80412;SHT30;69749;42.684;23.360;2023-07-13T01:09:45;23.45;57.07
80412;SHT30;69749;42.684;23.360;2023-07-13T01:12:11;23.24;58.81
80412;SHT30;69749;42.684;23.360;2023-07-13T01:14:36;23.12;58.52
80412;SHT30;69749;42.684;23.360;2023-07-13T01:17:02;23.10;58.91
80412;SHT30;69749;42.684;23.360;2023-07-13T01:19:40;23.21;57.94
80412;SHT30;69749;42.684;23.360;2023-07-13T01:22:13;23.27;58.28
80412;SHT30;69749;42.684;23.360;2023-07-13T01:24:41;23.21;59.16
80412;SHT30;69749;42.684;23.360;2023-07-13T01:27:09;23.07;59.13
80412;SHT30;69749;42.684;23.360;2023-07-13T01:29:35;23.08;59.52
80412;SHT30;69749;42.684;23.360;2023-07-13T01:32:11;22.94;59.79
80412;SHT30;69749;42.684;23.360;2023-07-13T01:34:36;23.00;59.10
80412;SHT30;69749;42.684;23.360;2023-07-13T01:37:03;23.03;59.56
80412;SHT30;69749;42.684;23.360;2023-07-13T01:39:29;22.97;59.39
80412;SHT30;69749;42.684;23.360;2023-07-13T01:41:55;23.00;59.86
80412;SHT30;69749;42.684;23.360;2023-07-13T01:44:20;22.98;59.80
80412;SHT30;69749;42.684;23.360;2023-07-13T01:46:46;22.97;59.45
80412;SHT30;69749;42.684;23.360;2023-07-13T01:49:11;23.01;57.97
80412;SHT30;69749;42.684;23.360;2023-07-13T01:51:36;23.04;57.30
80412;SHT30;69749;42.684;23.360;2023-07-13T01:54:02;23.06;56.68
80412;SHT30;69749;42.684;23.360;2023-07-13T01:56:27;22.97;56.93
80412;SHT30;69749;42.684;23.360;2023-07-13T01:58:53;23.00;57.65
80412;SHT30;69749;42.684;23.360;2023-07-13T02:01:18;22.97;58.44
80412;SHT30;69749;42.684;23.360;2023-07-13T02:03:44;23.01;57.61
80412;SHT30;69749;42.684;23.360;2023-07-13T02:06:09;23.00;58.44
80412;SHT30;69749;42.684;23.360;2023-07-13T02:08:35;23.00;58.59
80412;SHT30;69749;42.684;23.360;2023-07-13T02:11:03;22.88;59.11
80412;SHT30;69749;42.684;23.360;2023-07-13T02:13:28;22.86;60.30
80412;SHT30;69749;42.684;23.360;2023-07-13T02:15:54;22.90;59.39
80412;SHT30;69749;42.684;23.360;2023-07-13T02:18:19;23.03;58.60
80412;SHT30;69749;42.684;23.360;2023-07-13T02:20:45;23.07;58.37
80412;SHT30;69749;42.684;23.360;2023-07-13T02:23:11;22.98;58.96
80412;SHT30;69749;42.684;23.360;2023-07-13T02:25:36;22.88;59.74
80412;SHT30;69749;42.684;23.360;2023-07-13T02:28:02;22.78;60.59
80412;SHT30;69749;42.684;23.360;2023-07-13T02:30:29;22.78;60.74
80412;SHT30;69749;42.684;23.360;2023-07-13T02:32:56;22.81;60.59
80412;SHT30;69749;42.684;23.360;2023-07-13T02:35:21;22.84;59.74
80412;SHT30;69749;42.684;23.360;2023-07-13T02:37:47;22.77;59.50
80412;SHT30;69749;42.684;23.360;2023-07-13T02:40:12;22.76;59.62
80412;SHT30;69749;42.684;23.360;2023-07-13T02:42:39;22.76;60.26
80412;SHT30;69749;42.684;23.360;2023-07-13T02:45:06;22.66;60.34
80412;SHT30;69749;42.684;23.360;2023-07-13T02:47:32;22.69;60.11
80412;SHT30;69749;42.684;23.360;2023-07-13T02:49:57;22.70;59.78
80412;SHT30;69749;42.684;23.360;2023-07-13T02:52:23;22.67;59.33
80412;SHT30;69749;42.684;23.360;2023-07-13T02:54:48;22.71;58.91
80412;SHT30;69749;42.684;23.360;2023-07-13T02:57:14;22.71;56.76
80412;SHT30;69749;42.684;23.360;2023-07-13T02:59:39;22.78;56.47
80412;SHT30;69749;42.684;23.360;2023-07-13T03:02:05;22.76;60.04
80412;SHT30;69749;42.684;23.360;2023-07-13T03:04:30;22.73;61.48
80412;SHT30;69749;42.684;23.360;2023-07-13T03:06:56;22.73;62.55
80412;SHT30;69749;42.684;23.360;2023-07-13T03:09:24;22.80;62.83
80412;SHT30;69749;42.684;23.360;2023-07-13T03:11:55;22.76;63.64
80412;SHT30;69749;42.684;23.360;2023-07-13T03:14:21;22.64;64.23
80412;SHT30;69749;42.684;23.360;2023-07-13T03:16:47;22.74;64.03
80412;SHT30;69749;42.684;23.360;2023-07-13T03:19:12;22.80;63.96
80412;SHT30;69749;42.684;23.360;2023-07-13T03:21:38;22.76;64.23
80412;SHT30;69749;42.684;23.360;2023-07-13T03:24:03;22.69;64.87
80412;SHT30;69749;42.684;23.360;2023-07-13T03:26:29;22.63;65.09
80412;SHT30;69749;42.684;23.360;2023-07-13T03:28:54;22.56;65.23
80412;SHT30;69749;42.684;23.360;2023-07-13T03:31:27;22.61;65.48
80412;SHT30;69749;42.684;23.360;2023-07-13T03:33:54;22.52;65.83
80412;SHT30;69749;42.684;23.360;2023-07-13T03:36:22;22.61;65.28
80412;SHT30;69749;42.684;23.360;2023-07-13T03:38:50;22.61;65.27
80412;SHT30;69749;42.684;23.360;2023-07-13T03:41:16;22.66;65.27
80412;SHT30;69749;42.684;23.360;2023-07-13T03:43:42;22.69;65.34
80412;SHT30;69749;42.684;23.360;2023-07-13T03:46:08;22.57;65.89
80412;SHT30;69749;42.684;23.360;2023-07-13T03:48:34;22.64;65.58
80412;SHT30;69749;42.684;23.360;2023-07-13T03:51:00;22.63;65.66
80412;SHT30;69749;42.684;23.360;2023-07-13T03:53:31;22.59;66.45
80412;SHT30;69749;42.684;23.360;2023-07-13T03:55:56;22.53;66.27
80412;SHT30;69749;42.684;23.360;2023-07-13T03:58:32;22.53;65.56
80412;SHT30;69749;42.684;23.360;2023-07-13T04:00:58;22.57;65.70
80412;SHT30;69749;42.684;23.360;2023-07-13T04:03:24;22.56;66.12
80412;SHT30;69749;42.684;23.360;2023-07-13T04:05:50;22.60;65.72
80412;SHT30;69749;42.684;23.360;2023-07-13T04:08:16;22.64;65.52
80412;SHT30;69749;42.684;23.360;2023-07-13T04:10:42;22.63;65.24
80412;SHT30;69749;42.684;23.360;2023-07-13T04:13:08;22.57;65.49
80412;SHT30;69749;42.684;23.360;2023-07-13T04:15:33;22.63;65.23
80412;SHT30;69749;42.684;23.360;2023-07-13T04:17:59;22.70;64.69
80412;SHT30;69749;42.684;23.360;2023-07-13T04:20:25;22.70;64.93
80412;SHT30;69749;42.684;23.360;2023-07-13T04:22:52;22.80;64.48
80412;SHT30;69749;42.684;23.360;2023-07-13T04:25:19;22.90;64.44
80412;SHT30;69749;42.684;23.360;2023-07-13T04:27:44;22.96;64.95
80412;SHT30;69749;42.684;23.360;2023-07-13T04:30:10;23.07;64.31
80412;SHT30;69749;42.684;23.360;2023-07-13T04:32:35;23.19;63.81
80412;SHT30;69749;42.684;23.360;2023-07-13T04:35:01;23.19;62.93
80412;SHT30;69749;42.684;23.360;2023-07-13T04:37:26;23.27;62.73
80412;SHT30;69749;42.684;23.360;2023-07-13T04:39:52;23.45;61.62
80412;SHT30;69749;42.684;23.360;2023-07-13T04:42:18;23.55;62.00
80412;SHT30;69749;42.684;23.360;2023-07-13T04:44:53;23.70;62.07
80412;SHT30;69749;42.684;23.360;2023-07-13T04:47:18;23.75;61.32
80412;SHT30;69749;42.684;23.360;2023-07-13T04:49:44;23.83;61.05
80412;SHT30;69749;42.684;23.360;2023-07-13T04:52:11;24.02;60.51
80412;SHT30;69749;42.684;23.360;2023-07-13T04:54:36;24.09;60.82
80412;SHT30;69749;42.684;23.360;2023-07-13T04:57:03;24.16;60.70
80412;SHT30;69749;42.684;23.360;2023-07-13T04:59:32;24.20;60.16
80412;SHT30;69749;42.684;23.360;2023-07-13T05:01:57;24.23;59.40
80412;SHT30;69749;42.684;23.360;2023-07-13T05:04:22;24.23;60.27
80412;SHT30;69749;42.684;23.360;2023-07-13T05:06:48;24.37;59.79
80412;SHT30;69749;42.684;23.360;2023-07-13T05:09:13;24.38;60.15
80412;SHT30;69749;42.684;23.360;2023-07-13T05:11:38;24.47;59.77
80412;SHT30;69749;42.684;23.360;2023-07-13T05:14:04;24.57;59.13
80412;SHT30;69749;42.684;23.360;2023-07-13T05:16:30;24.76;57.91
80412;SHT30;69749;42.684;23.360;2023-07-13T05:18:57;24.91;57.43
80412;SHT30;69749;42.684;23.360;2023-07-13T05:21:22;24.93;58.28
80412;SHT30;69749;42.684;23.360;2023-07-13T05:23:47;25.12;56.90
80412;SHT30;69749;42.684;23.360;2023-07-13T05:26:13;25.15;57.28
80412;SHT30;69749;42.684;23.360;2023-07-13T05:28:39;25.24;56.85
80412;SHT30;69749;42.684;23.360;2023-07-13T05:31:06;25.33;56.58
80412;SHT30;69749;42.684;23.360;2023-07-13T05:33:32;25.59;55.14
80412;SHT30;69749;42.684;23.360;2023-07-13T05:35:57;25.69;55.01
80412;SHT30;69749;42.684;23.360;2023-07-13T05:38:23;25.81;55.28
80412;SHT30;69749;42.684;23.360;2023-07-13T05:40:49;25.98;54.99
80412;SHT30;69749;42.684;23.360;2023-07-13T05:43:15;26.19;54.58
80412;SHT30;69749;42.684;23.360;2023-07-13T05:45:41;26.31;54.02
80412;SHT30;69749;42.684;23.360;2023-07-13T05:48:06;26.40;53.75
80412;SHT30;69749;42.684;23.360;2023-07-13T05:50:38;26.63;53.67
80412;SHT30;69749;42.684;23.360;2023-07-13T05:53:03;26.79;53.08
80412;SHT30;69749;42.684;23.360;2023-07-13T05:55:29;26.94;53.24
80412;SHT30;69749;42.684;23.360;2023-07-13T05:57:54;27.24;50.99
80412;SHT30;69749;42.684;23.360;2023-07-13T06:00:32;27.31;51.00
80412;SHT30;69749;42.684;23.360;2023-07-13T06:02:59;27.42;51.17
80412;SHT30;69749;42.684;23.360;2023-07-13T06:05:24;27.52;50.42
80412;SHT30;69749;42.684;23.360;2023-07-13T06:07:49;27.69;49.70
80412;SHT30;69749;42.684;23.360;2023-07-13T06:10:15;27.76;48.70
80412;SHT30;69749;42.684;23.360;2023-07-13T06:12:40;27.83;48.27
80412;SHT30;69749;42.684;23.360;2023-07-13T06:15:06;27.99;48.50
80412;SHT30;69749;42.684;23.360;2023-07-13T06:17:32;28.23;47.83
80412;SHT30;69749;42.684;23.360;2023-07-13T06:19:57;28.48;46.12
80412;SHT30;69749;42.684;23.360;2023-07-13T06:22:23;28.68;46.13
80412;SHT30;69749;42.684;23.360;2023-07-13T06:24:48;28.84;46.45
80412;SHT30;69749;42.684;23.360;2023-07-13T06:27:13;28.87;44.47
80412;SHT30;69749;42.684;23.360;2023-07-13T06:29:39;29.08;43.69
80412;SHT30;69749;42.684;23.360;2023-07-13T06:32:06;29.15;44.50
80412;SHT30;69749;42.684;23.360;2023-07-13T06:34:31;29.32;43.75
80412;SHT30;69749;42.684;23.360;2023-07-13T06:36:56;29.49;43.59
80412;SHT30;69749;42.684;23.360;2023-07-13T06:39:22;29.61;43.52
80412;SHT30;69749;42.684;23.360;2023-07-13T06:41:47;29.76;42.69
80412;SHT30;69749;42.684;23.360;2023-07-13T06:44:13;29.98;43.02
80412;SHT30;69749;42.684;23.360;2023-07-13T06:46:38;30.21;42.81
80412;SHT30;69749;42.684;23.360;2023-07-13T06:49:04;30.52;42.31
80412;SHT30;69749;42.684;23.360;2023-07-13T06:51:29;30.75;40.23
80412;SHT30;69749;42.684;23.360;2023-07-13T06:53:54;31.08;39.90
80412;SHT30;69749;42.684;23.360;2023-07-13T06:56:21;31.48;39.19
80412;SHT30;69749;42.684;23.360;2023-07-13T06:58:46;31.89;37.97
80412;SHT30;69749;42.684;23.360;2023-07-13T07:01:12;32.39;37.25
80412;SHT30;69749;42.684;23.360;2023-07-13T07:03:37;32.88;35.97
80412;SHT30;69749;42.684;23.360;2023-07-13T07:08:40;33.89;34.48
80412;SHT30;69749;42.684;23.360;2023-07-13T07:11:09;34.38;33.83
80412;SHT30;69749;42.684;23.360;2023-07-13T07:13:35;34.82;33.29
80412;SHT30;69749;42.684;23.360;2023-07-13T07:16:00;34.99;33.39
80412;SHT30;69749;42.684;23.360;2023-07-13T07:18:25;35.29;33.00
80412;SHT30;69749;42.684;23.360;2023-07-13T07:20:51;35.36;32.26
80412;SHT30;69749;42.684;23.360;2023-07-13T07:23:17;35.25;34.06
80412;SHT30;69749;42.684;23.360;2023-07-13T07:25:44;34.92;33.79
80412;SHT30;69749;42.684;23.360;2023-07-13T07:28:09;34.93;33.86
80412;SHT30;69749;42.684;23.360;2023-07-13T07:30:35;34.91;33.79
80412;SHT30;69749;42.684;23.360;2023-07-13T07:33:00;34.72;34.31
80412;SHT30;69749;42.684;23.360;2023-07-13T07:35:26;34.75;34.41
80412;SHT30;69749;42.684;23.360;2023-07-13T07:37:52;34.59;33.77
80412;SHT30;69749;42.684;23.360;2023-07-13T07:40:18;34.43;33.94
80412;SHT30;69749;42.684;23.360;2023-07-13T07:42:43;34.41;34.74
80412;SHT30;69749;42.684;23.360;2023-07-13T07:45:09;34.41;33.90
80412;SHT30;69749;42.684;23.360;2023-07-13T07:47:37;34.27;34.06
80412;SHT30;69749;42.684;23.360;2023-07-13T07:50:02;34.14;35.00
80412;SHT30;69749;42.684;23.360;2023-07-13T07:52:28;34.23;34.26
80412;SHT30;69749;42.684;23.360;2023-07-13T07:54:54;34.24;34.15
80412;SHT30;69749;42.684;23.360;2023-07-13T07:57:19;34.27;34.38
80412;SHT30;69749;42.684;23.360;2023-07-13T07:59:44;34.17;34.17
80412;SHT30;69749;42.684;23.360;2023-07-13T08:02:10;34.07;34.41
80412;SHT30;69749;42.684;23.360;2023-07-13T08:04:36;34.04;34.60
80412;SHT30;69749;42.684;23.360;2023-07-13T08:07:02;34.10;34.35
80412;SHT30;69749;42.684;23.360;2023-07-13T08:09:28;33.89;34.89
80412;SHT30;69749;42.684;23.360;2023-07-13T08:11:54;33.60;34.54
80412;SHT30;69749;42.684;23.360;2023-07-13T08:14:20;33.49;34.87
80412;SHT30;69749;42.684;23.360;2023-07-13T08:16:45;33.43;35.05
80412;SHT30;69749;42.684;23.360;2023-07-13T08:19:11;33.33;35.46
80412;SHT30;69749;42.684;23.360;2023-07-13T08:21:37;33.38;35.71
80412;SHT30;69749;42.684;23.360;2023-07-13T08:24:02;33.41;34.98
80412;SHT30;69749;42.684;23.360;2023-07-13T08:26:28;33.59;35.66
80412;SHT30;69749;42.684;23.360;2023-07-13T08:28:53;33.73;35.78
80412;SHT30;69749;42.684;23.360;2023-07-13T08:31:19;33.90;34.70
80412;SHT30;69749;42.684;23.360;2023-07-13T08:33:44;33.94;35.11
80412;SHT30;69749;42.684;23.360;2023-07-13T08:36:10;33.90;34.47
80412;SHT30;69749;42.684;23.360;2023-07-13T08:38:35;33.85;35.22
80412;SHT30;69749;42.684;23.360;2023-07-13T08:41:11;33.87;34.64
80412;SHT30;69749;42.684;23.360;2023-07-13T08:43:37;33.93;35.13
80412;SHT30;69749;42.684;23.360;2023-07-13T08:46:16;34.07;35.09
80412;SHT30;69749;42.684;23.360;2023-07-13T08:51:35;34.35;34.92
80412;SHT30;69749;42.684;23.360;2023-07-13T08:54:12;34.54;34.66
80412;SHT30;69749;42.684;23.360;2023-07-13T08:56:44;34.65;34.44
80412;SHT30;69749;42.684;23.360;2023-07-13T08:59:14;34.72;33.97
80412;SHT30;69749;42.684;23.360;2023-07-13T09:04:41;35.00;33.68
80412;SHT30;69749;42.684;23.360;2023-07-13T09:07:25;35.07;34.15
80412;SHT30;69749;42.684;23.360;2023-07-13T09:10:20;35.09;33.35
80412;SHT30;69749;42.684;23.360;2023-07-13T09:13:20;35.10;33.78
80412;SHT30;69749;42.684;23.360;2023-07-13T09:15:48;35.17;33.40
80412;SHT30;69749;42.684;23.360;2023-07-13T09:21:02;35.23;33.17
80412;SHT30;69749;42.684;23.360;2023-07-13T09:23:29;35.27;33.19
80412;SHT30;69749;42.684;23.360;2023-07-13T09:26:11;35.25;32.80
80412;SHT30;69749;42.684;23.360;2023-07-13T09:28:49;35.26;32.67
80412;SHT30;69749;42.684;23.360;2023-07-13T09:31:26;35.14;33.27
80412;SHT30;69749;42.684;23.360;2023-07-13T09:33:53;35.16;33.16
80412;SHT30;69749;42.684;23.360;2023-07-13T09:36:25;35.22;33.19
80412;SHT30;69749;42.684;23.360;2023-07-13T09:41:51;35.29;34.75
80412;SHT30;69749;42.684;23.360;2023-07-13T09:44:32;35.34;33.08
80412;SHT30;69749;42.684;23.360;2023-07-13T09:46:58;35.39;32.47
80412;SHT30;69749;42.684;23.360;2023-07-13T09:49:36;35.34;33.51
80412;SHT30;69749;42.684;23.360;2023-07-13T09:52:05;35.16;33.25
80412;SHT30;69749;42.684;23.360;2023-07-13T09:54:34;35.20;33.67
80412;SHT30;69749;42.684;23.360;2023-07-13T09:57:01;35.16;33.94
80412;SHT30;69749;42.684;23.360;2023-07-13T09:59:28;35.10;33.38
80412;SHT30;69749;42.684;23.360;2023-07-13T10:01:54;35.06;34.34
80412;SHT30;69749;42.684;23.360;2023-07-13T10:04:31;34.96;34.47
80412;SHT30;69749;42.684;23.360;2023-07-13T10:07:08;35.07;34.07
80412;SHT30;69749;42.684;23.360;2023-07-13T10:09:34;35.13;33.36
80412;SHT30;69749;42.684;23.360;2023-07-13T10:12:00;35.00;33.05
80412;SHT30;69749;42.684;23.360;2023-07-13T10:14:27;35.00;33.22
80412;SHT30;69749;42.684;23.360;2023-07-13T10:17:00;35.06;33.02
80412;SHT30;69749;42.684;23.360;2023-07-13T10:19:31;34.91;32.47
80412;SHT30;69749;42.684;23.360;2023-07-13T10:22:10;34.92;33.31
80412;SHT30;69749;42.684;23.360;2023-07-13T10:24:39;35.02;33.28
80412;SHT30;69749;42.684;23.360;2023-07-13T10:27:25;35.16;32.47
80412;SHT30;69749;42.684;23.360;2023-07-13T10:30:01;35.14;33.11
80412;SHT30;69749;42.684;23.360;2023-07-13T10:32:28;35.16;33.44
80412;SHT30;69749;42.684;23.360;2023-07-13T10:34:54;35.26;30.78
80412;SHT30;69749;42.684;23.360;2023-07-13T10:37:51;35.22;30.09
80412;SHT30;69749;42.684;23.360;2023-07-13T10:40:19;35.37;28.68
80412;SHT30;69749;42.684;23.360;2023-07-13T10:42:48;35.39;29.21
80412;SHT30;69749;42.684;23.360;2023-07-13T10:45:17;35.34;29.56
80412;SHT30;69749;42.684;23.360;2023-07-13T10:47:44;35.36;28.44
80412;SHT30;69749;42.684;23.360;2023-07-13T10:50:24;35.63;27.78
80412;SHT30;69749;42.684;23.360;2023-07-13T10:52:55;35.55;27.76
80412;SHT30;69749;42.684;23.360;2023-07-13T10:56:00;35.54;28.23
80412;SHT30;69749;42.684;23.360;2023-07-13T10:58:32;35.63;27.39
80412;SHT30;69749;42.684;23.360;2023-07-13T11:03:31;35.43;26.74
80412;SHT30;69749;42.684;23.360;2023-07-13T11:09:07;35.53;26.87
80412;SHT30;69749;42.684;23.360;2023-07-13T11:11:43;35.44;26.94
80412;SHT30;69749;42.684;23.360;2023-07-13T11:22:49;35.42;27.29
80412;SHT30;69749;42.684;23.360;2023-07-13T11:25:27;35.39;27.54
80412;SHT30;69749;42.684;23.360;2023-07-13T11:33:49;35.63;25.53
80412;SHT30;69749;42.684;23.360;2023-07-13T11:36:17;35.58;27.31
80412;SHT30;69749;42.684;23.360;2023-07-13T11:39:12;35.74;25.91
80412;SHT30;69749;42.684;23.360;2023-07-13T11:41:49;35.63;25.69
80412;SHT30;69749;42.684;23.360;2023-07-13T11:44:18;35.50;27.35
80412;SHT30;69749;42.684;23.360;2023-07-13T11:46:52;35.47;27.60
80412;SHT30;69749;42.684;23.360;2023-07-13T11:49:21;35.64;26.41
80412;SHT30;69749;42.684;23.360;2023-07-13T11:51:47;35.53;27.85
80412;SHT30;69749;42.684;23.360;2023-07-13T11:54:42;35.54;28.29
80412;SHT30;69749;42.684;23.360;2023-07-13T11:57:24;35.54;30.04
80412;SHT30;69749;42.684;23.360;2023-07-13T11:59:52;35.43;27.88
80412;SHT30;69749;42.684;23.360;2023-07-13T12:02:28;35.55;28.74
80412;SHT30;69749;42.684;23.360;2023-07-13T12:04:55;35.61;28.02
80412;SHT30;69749;42.684;23.360;2023-07-13T12:07:22;35.67;28.21
80412;SHT30;69749;42.684;23.360;2023-07-13T12:09:48;35.55;28.97
80412;SHT30;69749;42.684;23.360;2023-07-13T12:12:20;35.57;29.63
80412;SHT30;69749;42.684;23.360;2023-07-13T12:14:46;35.57;29.10
80412;SHT30;69749;42.684;23.360;2023-07-13T12:17:24;35.65;28.10
80412;SHT30;69749;42.684;23.360;2023-07-13T12:19:51;35.70;27.59
80412;SHT30;69749;42.684;23.360;2023-07-13T12:22:18;35.70;28.13
80412;SHT30;69749;42.684;23.360;2023-07-13T12:24:46;35.76;27.58
80412;SHT30;69749;42.684;23.360;2023-07-13T12:27:24;35.73;27.59
80412;SHT30;69749;42.684;23.360;2023-07-13T12:30:02;35.76;27.47
80412;SHT30;69749;42.684;23.360;2023-07-13T12:32:30;35.76;27.03
80412;SHT30;69749;42.684;23.360;2023-07-13T12:35:03;35.70;26.87
80412;SHT30;69749;42.684;23.360;2023-07-13T12:37:34;35.84;27.43
80412;SHT30;69749;42.684;23.360;2023-07-13T12:40:00;35.78;26.62
80412;SHT30;69749;42.684;23.360;2023-07-13T12:42:31;35.77;28.40
80412;SHT30;69749;42.684;23.360;2023-07-13T12:47:43;35.65;28.76
80412;SHT30;69749;42.684;23.360;2023-07-13T12:50:17;35.58;28.57
80412;SHT30;69749;42.684;23.360;2023-07-13T12:52:44;35.54;27.61
80412;SHT30;69749;42.684;23.360;2023-07-13T12:55:17;35.63;27.18
80412;SHT30;69749;42.684;23.360;2023-07-13T12:58:03;35.73;28.28
80412;SHT30;69749;42.684;23.360;2023-07-13T13:00:35;35.71;28.30
80412;SHT30;69749;42.684;23.360;2023-07-13T13:03:51;35.78;26.82
80412;SHT30;69749;42.684;23.360;2023-07-13T13:06:43;35.74;26.96
80412;SHT30;69749;42.684;23.360;2023-07-13T13:08:50;35.76;26.67
80412;SHT30;69749;42.684;23.360;2023-07-13T13:11:17;35.77;28.43
80412;SHT30;69749;42.684;23.360;2023-07-13T13:13:43;35.76;28.09
80412;SHT30;69749;42.684;23.360;2023-07-13T13:19:15;35.71;26.60
80412;SHT30;69749;42.684;23.360;2023-07-13T13:21:45;35.64;26.68
80412;SHT30;69749;42.684;23.360;2023-07-13T13:24:16;35.65;27.69
80412;SHT30;69749;42.684;23.360;2023-07-13T13:26:43;35.61;26.92
80412;SHT30;69749;42.684;23.360;2023-07-13T13:29:20;35.55;27.88
80412;SHT30;69749;42.684;23.360;2023-07-13T13:31:46;35.58;27.38
80412;SHT30;69749;42.684;23.360;2023-07-13T13:34:15;35.51;27.65
80412;SHT30;69749;42.684;23.360;2023-07-13T13:36:42;35.61;28.08
80412;SHT30;69749;42.684;23.360;2023-07-13T13:41:51;35.65;27.29
80412;SHT30;69749;42.684;23.360;2023-07-13T13:44:18;35.63;29.24
80412;SHT30;69749;42.684;23.360;2023-07-13T13:46:47;35.57;29.04
80412;SHT30;69749;42.684;23.360;2023-07-13T13:49:19;35.54;28.71
80412;SHT30;69749;42.684;23.360;2023-07-13T13:51:46;35.53;28.33
80412;SHT30;69749;42.684;23.360;2023-07-13T13:54:13;35.51;27.58
80412;SHT30;69749;42.684;23.360;2023-07-13T13:56:42;35.65;26.72
80412;SHT30;69749;42.684;23.360;2023-07-13T13:59:07;35.71;25.98
80412;SHT30;69749;42.684;23.360;2023-07-13T14:01:33;35.58;26.99
80412;SHT30;69749;42.684;23.360;2023-07-13T14:03:59;35.65;26.75
80412;SHT30;69749;42.684;23.360;2023-07-13T14:06:25;35.71;26.43
80412;SHT30;69749;42.684;23.360;2023-07-13T14:08:50;35.55;28.37
80412;SHT30;69749;42.684;23.360;2023-07-13T14:11:20;35.49;26.83
80412;SHT30;69749;42.684;23.360;2023-07-13T14:13:57;35.47;28.15
80412;SHT30;69749;42.684;23.360;2023-07-13T14:16:28;35.43;28.51
80412;SHT30;69749;42.684;23.360;2023-07-13T14:18:55;35.47;28.97
80412;SHT30;69749;42.684;23.360;2023-07-13T14:21:23;35.58;29.28
80412;SHT30;69749;42.684;23.360;2023-07-13T14:23:49;35.49;29.47
80412;SHT30;69749;42.684;23.360;2023-07-13T14:26:16;35.46;27.76
80412;SHT30;69749;42.684;23.360;2023-07-13T14:28:47;35.40;28.29
80412;SHT30;69749;42.684;23.360;2023-07-13T14:31:15;35.42;30.69
80412;SHT30;69749;42.684;23.360;2023-07-13T14:33:41;35.44;28.19
80412;SHT30;69749;42.684;23.360;2023-07-13T14:36:31;35.55;26.27
80412;SHT30;69749;42.684;23.360;2023-07-13T14:38:58;35.55;27.13
80412;SHT30;69749;42.684;23.360;2023-07-13T14:41:24;35.47;27.52
80412;SHT30;69749;42.684;23.360;2023-07-13T14:43:50;35.37;27.81
80412;SHT30;69749;42.684;23.360;2023-07-13T14:46:26;35.36;28.64
80412;SHT30;69749;42.684;23.360;2023-07-13T14:49:06;35.26;28.36
80412;SHT30;69749;42.684;23.360;2023-07-13T14:51:34;35.16;29.29
80412;SHT30;69749;42.684;23.360;2023-07-13T14:54:08;35.16;28.98
80412;SHT30;69749;42.684;23.360;2023-07-13T14:56:34;35.22;28.98
80412;SHT30;69749;42.684;23.360;2023-07-13T14:59:00;35.13;29.17
80412;SHT30;69749;42.684;23.360;2023-07-13T15:01:26;35.06;29.26
80412;SHT30;69749;42.684;23.360;2023-07-13T15:03:52;35.06;29.33
80412;SHT30;69749;42.684;23.360;2023-07-13T15:06:18;35.09;29.29
80412;SHT30;69749;42.684;23.360;2023-07-13T15:08:45;35.07;28.48
80412;SHT30;69749;42.684;23.360;2023-07-13T15:11:11;34.99;28.81
80412;SHT30;69749;42.684;23.360;2023-07-13T15:13:38;34.95;30.21
80412;SHT30;69749;42.684;23.360;2023-07-13T15:16:05;34.89;30.17
80412;SHT30;69749;42.684;23.360;2023-07-13T15:18:37;34.88;29.65
80412;SHT30;69749;42.684;23.360;2023-07-13T15:21:09;34.84;29.99
80412;SHT30;69749;42.684;23.360;2023-07-13T15:23:35;34.82;30.79
80412;SHT30;69749;42.684;23.360;2023-07-13T15:26:00;34.84;31.66
80412;SHT30;69749;42.684;23.360;2023-07-13T15:28:29;34.85;31.33
80412;SHT30;69749;42.684;23.360;2023-07-13T15:30:54;34.78;30.78
80412;SHT30;69749;42.684;23.360;2023-07-13T15:33:27;34.71;31.18
80412;SHT30;69749;42.684;23.360;2023-07-13T15:35:54;34.69;30.51
80412;SHT30;69749;42.684;23.360;2023-07-13T15:38:25;34.64;30.73
80412;SHT30;69749;42.684;23.360;2023-07-13T15:40:53;34.62;31.04
80412;SHT30;69749;42.684;23.360;2023-07-13T15:43:19;34.58;30.97
80412;SHT30;69749;42.684;23.360;2023-07-13T15:45:46;34.56;30.99
80412;SHT30;69749;42.684;23.360;2023-07-13T15:48:23;34.51;31.11
80412;SHT30;69749;42.684;23.360;2023-07-13T15:50:53;34.47;31.81
80412;SHT30;69749;42.684;23.360;2023-07-13T15:53:29;34.47;31.71
80412;SHT30;69749;42.684;23.360;2023-07-13T15:55:55;34.41;31.66
80412;SHT30;69749;42.684;23.360;2023-07-13T15:58:21;34.45;31.37
80412;SHT30;69749;42.684;23.360;2023-07-13T16:00:48;34.38;31.77
80412;SHT30;69749;42.684;23.360;2023-07-13T16:03:19;34.35;32.30
80412;SHT30;69749;42.684;23.360;2023-07-13T16:05:45;34.29;32.24
80412;SHT30;69749;42.684;23.360;2023-07-13T16:08:36;34.25;32.32